KFMH/FMH METAR and TAF weather

Enter ICAO airport designator
Station Type Date Time Source
KFMH METAR 2021/09/20 05:45 UTC NOAA

KFMH 200545Z 00000KT 10SM CLR 11/11 A3025


Station Type Date Time Source
KFMH Decoded METAR 2021/09/20 05:45 UTC NOAA

Otis Air National Guard Base, MA, United States (KFMH) 41-39N 070-31W
Sep 20, 2021 - 01:45 AM EDT / 2021.09.20 0545 UTC
Wind: Calm:0
Visibility: 10 mile(s):0
Sky conditions: clear
Temperature: 51 F (11 C)
Dew Point: 51 F (11 C)
Relative Humidity: 100%
Pressure (altimeter): 30.25 in. Hg (1024 hPa)
ob: KFMH 200545Z 00000KT 10SM CLR 11/11 A3025
cycle: 6

Station Type Date Time Source
KFMH TAF 2021/09/20 06:39 UTC NOAA

TAF KFMH 200537Z 2006/2106 00000KT P6SM SKC
FM200700 01004KT P6SM SKC
FM201100 04004KT P6SM SKC
FM201700 08007KT P6SM SKC
FM202300 11006KT P6SM SKC

Example: see airport list